createdAt,value
2019-05-10T00:01:00.532Z,66.65
2019-05-10T00:02:22.945Z,66.65
2019-05-10T00:03:44.691Z,67.12
2019-05-10T00:05:06.932Z,67.19
2019-05-10T00:06:29.083Z,67.75
2019-05-10T00:07:51.072Z,67.80
2019-05-10T00:08:54.667Z,67.77
2019-05-10T00:09:58.071Z,67.87
2019-05-10T00:11:06.563Z,68.15
2019-05-10T00:12:13.985Z,68.38
2019-05-10T00:13:22.400Z,68.44
2019-05-10T00:14:28.208Z,68.20
2019-05-10T00:15:33.883Z,68.16
2019-05-10T00:16:38.234Z,68.04
2019-05-10T00:17:42.539Z,68.04
2019-05-10T00:18:46.952Z,67.94
2019-05-10T00:19:51.259Z,68.32
2019-05-10T00:20:55.607Z,68.40
2019-05-10T00:21:59.775Z,68.55
2019-05-10T00:23:04.400Z,68.73
2019-05-10T00:24:08.660Z,68.94
2019-05-10T00:25:14.105Z,69.24
2019-05-10T00:26:18.263Z,69.52
2019-05-10T00:27:22.615Z,69.87
2019-05-10T00:28:26.851Z,69.78
2019-05-10T00:29:32.172Z,69.94
2019-05-10T00:30:36.361Z,69.52
2019-05-10T00:31:40.781Z,69.41
2019-05-10T00:32:44.943Z,69.26
2019-05-10T00:33:49.316Z,68.91
2019-05-10T00:34:53.488Z,68.66
2019-05-10T00:35:57.831Z,68.42
2019-05-10T00:37:02.000Z,68.43
2019-05-10T00:38:06.355Z,68.33
2019-05-10T00:39:10.557Z,68.04
2019-05-10T00:40:14.971Z,67.98
2019-05-10T00:41:19.136Z,67.92
2019-05-10T00:42:23.483Z,67.73
2019-05-10T00:43:27.652Z,67.53
2019-05-10T00:44:33.010Z,67.58
2019-05-10T00:45:37.171Z,67.63
2019-05-10T00:46:41.520Z,67.84
2019-05-10T00:47:45.688Z,68.06
2019-05-10T00:48:50.039Z,68.11
2019-05-10T00:49:54.397Z,68.26
2019-05-10T00:50:58.745Z,68.22
2019-05-10T00:52:02.937Z,68.21
2019-05-10T00:53:07.274Z,68.25
2019-05-10T00:54:11.446Z,68.26
2019-05-10T00:55:19.077Z,68.13
2019-05-10T00:56:21.677Z,68.02
2019-05-10T00:57:26.023Z,67.72
2019-05-10T00:58:30.193Z,67.48
2019-05-10T00:59:34.564Z,67.34
2019-05-10T01:00:38.747Z,67.06
2019-05-10T01:01:43.354Z,66.85
2019-05-10T01:02:47.515Z,66.82
2019-05-10T01:03:51.866Z,66.65
2019-05-10T01:04:56.031Z,66.47
2019-05-10T01:06:00.431Z,66.23
2019-05-10T01:07:04.606Z,66.17
2019-05-10T01:08:08.955Z,66.20
2019-05-10T01:09:13.490Z,65.99
2019-05-10T01:10:17.837Z,66.09
2019-05-10T01:11:22.035Z,66.19
2019-05-10T01:12:26.386Z,66.40
2019-05-10T01:13:30.553Z,66.79
2019-05-10T01:14:34.898Z,67.21
2019-05-10T01:15:39.064Z,67.41
2019-05-10T01:16:43.438Z,67.97
2019-05-10T01:17:47.605Z,68.37
2019-05-10T01:18:51.963Z,68.18
2019-05-10T01:19:56.481Z,68.28
2019-05-10T01:21:00.888Z,68.72
2019-05-10T01:22:05.055Z,68.83
2019-05-10T01:23:09.404Z,68.75
2019-05-10T01:24:13.612Z,68.76
2019-05-10T01:25:33.677Z,68.49
2019-05-10T01:26:24.009Z,68.48
2019-05-10T01:27:28.357Z,68.67
2019-05-10T01:28:32.524Z,68.75
2019-05-10T01:29:36.876Z,68.67
2019-05-10T01:30:41.577Z,68.64
2019-05-10T01:31:46.161Z,68.50
2019-05-10T01:32:50.481Z,68.44
2019-05-10T01:33:54.866Z,68.66
2019-05-10T01:34:59.068Z,68.42
2019-05-10T01:36:03.415Z,68.11
2019-05-10T01:37:07.607Z,67.98
2019-05-10T01:38:12.233Z,67.82
2019-05-10T01:39:16.396Z,67.54
2019-05-10T01:40:20.759Z,67.51
2019-05-10T01:41:24.924Z,67.70
2019-05-10T01:42:29.329Z,67.89
2019-05-10T01:43:33.642Z,67.93
2019-05-10T01:44:38.079Z,67.82
2019-05-10T01:45:42.743Z,67.80
2019-05-10T01:46:47.158Z,68.03
2019-05-10T01:47:51.402Z,67.90
2019-05-10T01:48:55.751Z,67.90
2019-05-10T01:49:59.947Z,68.17
2019-05-10T01:51:04.720Z,68.35
2019-05-10T01:52:08.962Z,68.23
2019-05-10T01:53:13.312Z,68.33
2019-05-10T01:54:17.532Z,68.56
2019-05-10T01:55:21.907Z,68.47
2019-05-10T01:56:26.074Z,68.11
2019-05-10T01:57:30.422Z,68.17
2019-05-10T01:58:34.598Z,68.15
2019-05-10T01:59:38.979Z,68.33
2019-05-10T02:00:43.438Z,68.35
2019-05-10T02:01:48.797Z,68.25
2019-05-10T02:02:53.036Z,68.25
2019-05-10T02:03:57.399Z,68.03
2019-05-10T02:05:01.588Z,67.73
2019-05-10T02:06:06.040Z,67.75
2019-05-10T02:07:10.194Z,68.05
2019-05-10T02:08:14.544Z,68.10
2019-05-10T02:09:18.762Z,68.41
2019-05-10T02:10:23.640Z,68.33
2019-05-10T02:11:27.871Z,68.39
2019-05-10T02:12:32.224Z,68.28
2019-05-10T02:13:36.391Z,68.09
2019-05-10T02:14:40.923Z,67.98
2019-05-10T02:15:45.129Z,67.88
2019-05-10T02:16:49.487Z,67.85
2019-05-10T02:17:53.656Z,67.78
2019-05-10T02:18:58.007Z,67.88
2019-05-10T02:20:02.233Z,67.92
2019-05-10T02:21:06.847Z,67.97
2019-05-10T02:22:11.127Z,67.91
2019-05-10T02:23:15.482Z,68.11
2019-05-10T02:24:19.650Z,68.01
2019-05-10T02:25:24.000Z,67.80
2019-05-10T02:26:28.216Z,67.66
2019-05-10T02:27:32.592Z,67.37
2019-05-10T02:28:36.774Z,67.21
2019-05-10T02:29:41.206Z,67.14
2019-05-10T02:30:45.385Z,66.92
2019-05-10T02:31:50.978Z,66.81
2019-05-10T02:32:55.146Z,66.89
2019-05-10T02:33:59.496Z,66.77
2019-05-10T02:35:06.437Z,66.89
2019-05-10T02:36:10.868Z,66.93
2019-05-10T02:37:15.447Z,66.99
2019-05-10T02:38:19.783Z,67.12
2019-05-10T02:39:24.020Z,67.07
2019-05-10T02:40:28.428Z,66.99
2019-05-10T02:41:32.589Z,66.90
2019-05-10T02:42:37.129Z,66.66
2019-05-10T02:43:41.294Z,66.55
2019-05-10T02:44:45.745Z,66.35
2019-05-10T02:45:49.913Z,66.36
2019-05-10T02:46:54.271Z,66.39
2019-05-10T02:47:58.468Z,66.38
2019-05-10T02:49:02.843Z,66.52
2019-05-10T02:50:07.186Z,66.46
2019-05-10T02:51:11.524Z,66.34
2019-05-10T02:52:15.690Z,66.51
2019-05-10T02:53:20.061Z,66.88
2019-05-10T02:54:24.264Z,67.00
2019-05-10T02:55:28.613Z,67.47
2019-05-10T02:56:32.789Z,67.95
2019-05-10T02:57:37.576Z,68.35
2019-05-10T02:58:42.786Z,68.67
2019-05-10T02:59:47.163Z,69.02
2019-05-10T03:00:51.391Z,69.53
2019-05-10T03:01:57.160Z,69.91
2019-05-10T03:03:01.436Z,69.96
2019-05-10T03:04:05.818Z,69.87
2019-05-10T03:05:10.243Z,69.98
2019-05-10T03:06:15.975Z,70.21
2019-05-10T03:07:20.165Z,70.07
2019-05-10T03:08:24.528Z,70.48
2019-05-10T03:09:28.866Z,70.21
2019-05-10T03:10:33.210Z,70.21
2019-05-10T03:11:46.307Z,70.04
2019-05-10T03:12:50.671Z,70.06
2019-05-10T03:13:55.522Z,69.82
2019-05-10T03:14:59.971Z,70.10
2019-05-10T03:16:04.420Z,70.28
2019-05-10T03:17:08.914Z,70.31
2019-05-10T03:18:13.088Z,70.12
2019-05-10T03:19:19.197Z,70.41
2019-05-10T03:20:23.340Z,70.58
2019-05-10T03:21:27.698Z,70.60
2019-05-10T03:22:33.585Z,70.58
2019-05-10T03:23:38.013Z,70.68
2019-05-10T03:24:42.213Z,70.94
2019-05-10T03:25:46.643Z,70.65
2019-05-10T03:26:51.672Z,70.59
2019-05-10T03:27:57.341Z,70.58
2019-05-10T03:29:01.523Z,70.46
2019-05-10T03:30:05.990Z,70.67
2019-05-10T03:31:10.240Z,70.71
2019-05-10T03:32:14.665Z,70.64
2019-05-10T03:33:18.968Z,70.53
2019-05-10T03:34:23.325Z,70.45
2019-05-10T03:35:27.518Z,70.20
2019-05-10T03:36:32.900Z,70.37
2019-05-10T03:37:37.080Z,70.51
2019-05-10T03:38:41.628Z,70.64
2019-05-10T03:39:45.797Z,70.66
2019-05-10T03:40:50.986Z,70.51
2019-05-10T03:41:55.159Z,70.38
2019-05-10T03:42:59.507Z,70.31
2019-05-10T03:44:04.343Z,70.03
2019-05-10T03:45:08.669Z,69.61
2019-05-10T03:46:12.930Z,69.53
2019-05-10T03:47:17.294Z,69.65
2019-05-10T03:48:21.463Z,69.58
2019-05-10T03:49:25.819Z,69.79
2019-05-10T03:50:29.980Z,69.75
2019-05-10T03:51:34.449Z,69.62
2019-05-10T03:52:38.617Z,69.64
2019-05-10T03:53:43.422Z,69.78
2019-05-10T03:54:47.589Z,69.50
2019-05-10T03:55:52.447Z,69.46
2019-05-10T03:57:11.847Z,69.52
2019-05-10T03:58:02.732Z,69.29
2019-05-10T03:59:06.945Z,69.00
2019-05-10T04:00:12.681Z,68.83
2019-05-10T04:01:16.865Z,68.64
2019-05-10T04:02:21.251Z,68.73
2019-05-10T04:03:25.414Z,68.83
2019-05-10T04:04:29.923Z,68.72
2019-05-10T04:05:34.112Z,69.08
2019-05-10T04:06:38.479Z,69.50
2019-05-10T04:07:42.663Z,69.18
2019-05-10T04:08:47.020Z,69.06
2019-05-10T04:09:51.197Z,69.14
2019-05-10T04:10:56.268Z,68.96
2019-05-10T04:12:00.436Z,69.09
2019-05-10T04:13:04.878Z,69.01
2019-05-10T04:14:09.049Z,69.15
2019-05-10T04:15:13.733Z,69.07
2019-05-10T04:16:17.894Z,68.87
2019-05-10T04:17:22.252Z,68.91
2019-05-10T04:18:26.421Z,69.19
2019-05-10T04:19:30.778Z,69.50
2019-05-10T04:20:34.945Z,69.52
2019-05-10T04:21:39.320Z,69.72
2019-05-10T04:22:43.484Z,69.80
2019-05-10T04:23:47.891Z,69.83
2019-05-10T04:24:52.125Z,69.81
2019-05-10T04:25:56.526Z,69.93
2019-05-10T04:27:00.684Z,69.85
2019-05-10T04:28:05.112Z,69.75
2019-05-10T04:29:10.241Z,69.92
2019-05-10T04:30:14.658Z,70.09
2019-05-10T04:31:18.873Z,70.26
2019-05-10T04:32:23.254Z,70.21
2019-05-10T04:33:27.417Z,69.74
2019-05-10T04:34:31.766Z,69.39
2019-05-10T04:35:35.950Z,69.18
2019-05-10T04:36:40.400Z,68.94
2019-05-10T04:37:45.048Z,68.85
2019-05-10T04:38:49.392Z,68.54
2019-05-10T04:39:53.563Z,68.40
2019-05-10T04:40:57.918Z,68.54
2019-05-10T04:42:02.158Z,68.64
2019-05-10T04:43:06.533Z,68.57
2019-05-10T04:44:11.151Z,68.79
2019-05-10T04:45:15.591Z,68.81
2019-05-10T04:46:19.776Z,68.61
2019-05-10T04:47:24.129Z,68.32
2019-05-10T04:48:28.405Z,68.12
2019-05-10T04:49:32.817Z,67.98
2019-05-10T04:50:37.020Z,67.79
2019-05-10T04:51:41.368Z,67.74
2019-05-10T04:52:45.548Z,67.84
2019-05-10T04:53:49.924Z,67.86
2019-05-10T04:54:54.163Z,67.85
2019-05-10T04:55:58.560Z,68.10
2019-05-10T04:57:02.885Z,68.25
2019-05-10T04:58:07.227Z,68.09
2019-05-10T04:59:11.432Z,68.04
2019-05-10T05:00:15.855Z,67.93
2019-05-10T05:01:20.023Z,68.10
2019-05-10T05:02:24.497Z,68.00
2019-05-10T05:03:28.680Z,67.87
2019-05-10T05:04:33.124Z,67.81
2019-05-10T05:05:37.385Z,67.94
2019-05-10T05:06:41.737Z,67.79
2019-05-10T05:07:47.000Z,68.04
2019-05-10T05:08:51.359Z,68.40
2019-05-10T05:09:55.527Z,68.79
2019-05-10T05:10:59.879Z,68.81
2019-05-10T05:12:05.038Z,68.61
2019-05-10T05:13:09.407Z,68.44
2019-05-10T05:14:13.571Z,68.67
2019-05-10T05:15:17.928Z,68.66
2019-05-10T05:16:22.153Z,68.62
2019-05-10T05:17:26.543Z,68.71
2019-05-10T05:18:30.743Z,68.89
2019-05-10T05:19:35.222Z,68.76
2019-05-10T05:20:39.378Z,68.51
2019-05-10T05:21:43.742Z,69.54
2019-05-10T05:22:47.950Z,69.39
2019-05-10T05:23:52.338Z,69.31
2019-05-10T05:25:01.076Z,68.86
2019-05-10T05:26:02.555Z,68.68
2019-05-10T05:27:06.725Z,69.15
2019-05-10T05:28:11.087Z,69.20
2019-05-10T05:29:15.743Z,68.86
2019-05-10T05:30:20.181Z,68.68
2019-05-10T05:31:24.363Z,68.28
2019-05-10T05:32:28.706Z,68.36
2019-05-10T05:33:32.883Z,68.24
2019-05-10T05:34:37.266Z,68.15
2019-05-10T05:35:41.534Z,68.42
2019-05-10T05:36:45.868Z,68.26
2019-05-10T05:37:50.033Z,68.01
2019-05-10T05:38:54.389Z,67.92
2019-05-10T05:39:58.592Z,67.96
2019-05-10T05:41:02.941Z,67.73
2019-05-10T05:42:07.151Z,67.59
2019-05-10T05:43:11.463Z,67.71
2019-05-10T05:44:20.327Z,67.72
2019-05-10T05:45:22.108Z,67.83
2019-05-10T05:46:26.289Z,67.78
2019-05-10T05:47:30.640Z,67.87
2019-05-10T05:48:40.544Z,67.69
2019-05-10T05:49:40.861Z,67.64
2019-05-10T05:50:45.068Z,67.52
2019-05-10T05:51:49.422Z,67.70
2019-05-10T05:52:53.629Z,67.63
2019-05-10T05:53:57.997Z,67.67
2019-05-10T05:55:02.141Z,67.29
2019-05-10T05:56:12.586Z,67.47
2019-05-10T05:57:12.391Z,67.61
2019-05-10T05:58:26.505Z,66.97
2019-05-10T05:59:26.052Z,66.70
2019-05-10T06:00:30.673Z,66.88
2019-05-10T06:01:34.563Z,66.94
2019-05-10T06:02:43.964Z,66.11
2019-05-10T06:03:45.057Z,66.44
2019-05-10T06:04:49.538Z,66.75
2019-05-10T06:05:53.710Z,66.86
2019-05-10T06:06:59.045Z,66.24
2019-05-10T06:08:04.595Z,66.06
2019-05-10T06:09:09.007Z,66.01
2019-05-10T06:10:17.193Z,66.48
2019-05-10T06:11:19.458Z,66.73
2019-05-10T06:12:23.629Z,66.36
2019-05-10T06:13:30.081Z,65.96
2019-05-10T06:14:34.315Z,65.82
2019-05-10T06:15:38.949Z,66.17
2019-05-10T06:16:45.153Z,65.27
2019-05-10T06:17:56.754Z,64.92
2019-05-10T06:18:55.082Z,64.49
2019-05-10T06:20:03.622Z,64.79
2019-05-10T06:21:05.335Z,64.16
2019-05-10T06:22:09.688Z,63.92
2019-05-10T06:23:13.860Z,64.45
2019-05-10T06:24:18.212Z,64.65
2019-05-10T06:25:38.104Z,64.24
2019-05-10T06:26:28.943Z,64.90
2019-05-10T06:27:35.426Z,64.57
2019-05-10T06:29:45.031Z,63.02
2019-05-10T06:30:49.489Z,61.98
2019-05-10T06:31:53.652Z,61.72
2019-05-10T06:33:00.760Z,62.58
2019-05-10T06:34:04.236Z,63.10
2019-05-10T06:35:14.162Z,63.33
2019-05-10T06:36:14.483Z,62.89
2019-05-10T06:37:18.854Z,62.32
2019-05-10T06:38:23.024Z,62.68
2019-05-10T06:39:27.362Z,62.17
2019-05-10T06:40:39.413Z,62.78
2019-05-10T06:41:37.610Z,61.18
2019-05-10T06:42:42.030Z,62.10
2019-05-10T06:43:51.244Z,62.01
2019-05-10T06:44:52.251Z,61.91
2019-05-10T06:45:56.601Z,62.37
2019-05-10T06:47:02.114Z,61.13
2019-05-10T06:48:06.883Z,61.30
2019-05-10T06:49:11.143Z,60.67
2019-05-10T06:50:15.510Z,61.79
2019-05-10T06:51:19.722Z,61.55
2019-05-10T06:52:27.665Z,61.24
2019-05-10T06:53:30.132Z,61.72
2019-05-10T06:54:34.484Z,62.76
2019-05-10T06:55:38.733Z,61.22
2019-05-10T06:56:43.087Z,61.02
2019-05-10T06:57:50.524Z,61.29
2019-05-10T06:58:53.475Z,61.80
2019-05-10T07:00:06.219Z,60.80
2019-05-10T07:01:04.457Z,60.63
2019-05-10T07:02:08.627Z,59.89
2019-05-10T07:03:13.084Z,60.60
2019-05-10T07:04:17.305Z,61.23
2019-05-10T07:05:21.701Z,60.54
2019-05-10T07:06:25.917Z,61.33
2019-05-10T07:07:43.117Z,60.33
2019-05-10T07:08:43.758Z,60.37
2019-05-10T07:10:48.130Z,59.35
2019-05-10T07:11:52.597Z,59.70
2019-05-10T07:13:02.958Z,60.08
2019-05-10T07:14:02.795Z,60.34
2019-05-10T07:15:07.416Z,59.94
2019-05-10T07:16:14.954Z,59.09
2019-05-10T07:17:17.691Z,60.50
2019-05-10T07:18:24.109Z,58.77
2019-05-10T07:19:28.832Z,59.70
2019-05-10T07:20:33.432Z,58.82
2019-05-10T07:21:39.097Z,58.73
2019-05-10T07:22:43.806Z,58.54
2019-05-10T07:23:47.925Z,58.76
2019-05-10T07:24:57.046Z,59.38
2019-05-10T07:25:58.164Z,58.72
2019-05-10T07:27:05.545Z,59.63
2019-05-10T07:28:09.702Z,59.54
2019-05-10T07:29:29.171Z,59.75
2019-05-10T07:30:26.284Z,58.88
2019-05-10T07:31:30.746Z,59.33
2019-05-10T07:32:35.930Z,59.01
2019-05-10T07:33:40.374Z,59.33
2019-05-10T07:34:48.783Z,58.56
2019-05-10T07:35:50.634Z,59.42
2019-05-10T07:36:54.779Z,58.11
2019-05-10T07:37:59.135Z,58.65
2019-05-10T07:39:08.414Z,58.85
2019-05-10T07:40:11.665Z,58.09
2019-05-10T07:41:19.339Z,57.72
2019-05-10T07:42:22.089Z,58.40
2019-05-10T07:43:28.863Z,58.15
2019-05-10T07:44:32.398Z,58.34
2019-05-10T07:45:36.567Z,56.87
2019-05-10T07:46:46.559Z,55.11
2019-05-10T07:47:46.982Z,55.19
2019-05-10T07:48:53.821Z,55.86
2019-05-10T07:49:57.295Z,56.07
2019-05-10T07:51:01.645Z,56.15
2019-05-10T07:52:05.826Z,56.84
2019-05-10T07:53:10.205Z,56.43
2019-05-10T07:54:15.483Z,55.59
2019-05-10T07:55:27.435Z,54.90
2019-05-10T07:56:26.788Z,55.93
2019-05-10T07:57:31.183Z,56.20
2019-05-10T07:58:38.118Z,55.73
2019-05-10T07:59:50.292Z,55.69
2019-05-10T08:00:47.591Z,56.03
2019-05-10T08:01:51.990Z,54.74
2019-05-10T08:03:07.493Z,54.26
2019-05-10T08:04:02.239Z,55.03
2019-05-10T08:05:10.925Z,54.81
2019-05-10T08:06:15.312Z,54.79
2019-05-10T08:07:18.667Z,55.34
2019-05-10T08:08:23.072Z,55.44
2019-05-10T08:09:31.489Z,56.10
2019-05-10T08:10:33.287Z,55.16
2019-05-10T08:11:39.097Z,54.65
2019-05-10T08:12:45.551Z,54.51
2019-05-10T08:13:49.443Z,53.17
2019-05-10T08:14:54.772Z,53.68
2019-05-10T08:15:59.488Z,53.87
2019-05-10T08:17:06.288Z,53.88
2019-05-10T08:18:10.014Z,52.35
2019-05-10T08:19:14.305Z,52.75
2019-05-10T08:20:33.407Z,53.37
2019-05-10T08:21:26.512Z,53.07
2019-05-10T08:22:40.193Z,52.91
2019-05-10T08:23:37.463Z,53.88
2019-05-10T08:24:46.416Z,53.88
2019-05-10T08:25:47.736Z,53.54
2019-05-10T08:26:55.500Z,53.33
2019-05-10T08:28:02.639Z,53.79
2019-05-10T08:29:07.765Z,54.56
2019-05-10T08:30:22.548Z,54.54
2019-05-10T08:31:17.499Z,54.91
2019-05-10T08:32:25.480Z,54.31
2019-05-10T08:33:29.109Z,52.75
2019-05-10T08:34:35.665Z,53.45
2019-05-10T08:35:43.400Z,52.69
2019-05-10T08:36:47.584Z,53.28
2019-05-10T08:37:53.000Z,51.21
2019-05-10T08:39:07.019Z,52.51
2019-05-10T08:40:03.774Z,50.99
2019-05-10T08:41:14.879Z,51.94
2019-05-10T08:42:32.639Z,52.37
2019-05-10T08:43:21.790Z,52.63
2019-05-10T08:44:26.183Z,52.53
2019-05-10T08:45:32.457Z,52.12
2019-05-10T08:46:41.206Z,51.88
2019-05-10T08:47:42.855Z,52.38
2019-05-10T08:48:51.372Z,52.52
2019-05-10T08:50:10.749Z,51.19
2019-05-10T08:51:05.645Z,50.61
2019-05-10T08:52:05.288Z,51.32
2019-05-10T08:53:11.074Z,49.26
2019-05-10T08:54:15.498Z,50.13
2019-05-10T08:55:19.931Z,51.12
2019-05-10T08:56:24.433Z,49.49
2019-05-10T08:57:28.671Z,50.21
2019-05-10T08:58:37.149Z,48.47
2019-05-10T08:59:38.910Z,49.74
2019-05-10T09:00:54.403Z,50.64
2019-05-10T09:01:50.806Z,50.00
2019-05-10T09:02:55.508Z,49.58
2019-05-10T09:04:04.389Z,48.33
2019-05-10T09:05:05.995Z,48.94
2019-05-10T09:06:14.209Z,47.70
2019-05-10T09:07:16.531Z,48.87
2019-05-10T09:08:24.790Z,48.28
2019-05-10T09:09:26.790Z,47.83
2019-05-10T09:10:32.377Z,47.66
2019-05-10T09:11:37.098Z,48.33
2019-05-10T09:12:50.661Z,47.85
2019-05-10T09:13:47.395Z,48.90
2019-05-10T09:14:57.445Z,49.24
2019-05-10T09:15:57.672Z,49.35
2019-05-10T09:17:04.310Z,48.07
2019-05-10T09:18:08.022Z,48.32
2019-05-10T09:19:12.497Z,47.94
2019-05-10T09:20:25.528Z,48.23
2019-05-10T09:21:23.235Z,47.77
2019-05-10T09:22:34.060Z,48.31
2019-05-10T09:23:33.484Z,46.74
2019-05-10T09:24:43.244Z,48.13
2019-05-10T09:25:43.695Z,47.19
2019-05-10T09:26:52.761Z,46.60
2019-05-10T09:27:53.941Z,45.80
2019-05-10T09:28:58.289Z,45.75
2019-05-10T09:30:03.067Z,45.28
2019-05-10T09:31:18.639Z,45.79
2019-05-10T09:32:14.444Z,45.57
2019-05-10T09:33:22.256Z,44.42
2019-05-10T09:34:27.191Z,45.32
2019-05-10T09:35:32.997Z,45.70
2019-05-10T09:36:37.211Z,44.85
2019-05-10T09:37:42.171Z,45.58
2019-05-10T09:38:46.522Z,45.95
2019-05-10T09:39:54.927Z,44.95
2019-05-10T09:40:57.851Z,44.83
2019-05-10T09:42:08.026Z,44.44
2019-05-10T09:43:09.747Z,45.08
2019-05-10T09:44:14.216Z,45.48
2019-05-10T09:45:18.376Z,44.15
2019-05-10T09:46:22.994Z,43.48
2019-05-10T09:47:27.497Z,43.76
2019-05-10T09:48:33.258Z,44.65
2019-05-10T09:49:37.591Z,44.78
2019-05-10T09:50:46.735Z,44.70
2019-05-10T09:51:47.976Z,44.08
2019-05-10T09:52:52.377Z,44.03
2019-05-10T09:53:57.656Z,44.46
2019-05-10T09:55:03.940Z,43.74
2019-05-10T09:56:08.470Z,45.33
2019-05-10T09:57:12.833Z,45.55
2019-05-10T09:58:21.789Z,44.96
2019-05-10T09:59:23.076Z,43.48
2019-05-10T10:00:37.700Z,43.67
2019-05-10T10:01:40.732Z,42.55
2019-05-10T10:02:47.740Z,43.08
2019-05-10T10:03:51.040Z,42.36
2019-05-10T10:04:58.578Z,42.24
2019-05-10T10:06:07.402Z,42.37
2019-05-10T10:07:07.146Z,41.93
2019-05-10T10:08:11.569Z,41.51
2019-05-10T10:09:17.197Z,40.83
2019-05-10T10:10:29.265Z,41.82
2019-05-10T10:11:27.904Z,42.72
2019-05-10T10:12:32.263Z,41.72
2019-05-10T10:13:43.085Z,43.30
2019-05-10T10:14:43.265Z,41.92
2019-05-10T10:15:51.941Z,41.80
2019-05-10T10:16:58.370Z,41.06
2019-05-10T10:17:59.527Z,42.08
2019-05-10T10:19:03.879Z,40.83
2019-05-10T10:20:08.642Z,41.84
2019-05-10T10:21:13.396Z,42.52
2019-05-10T10:22:19.838Z,42.71
2019-05-10T10:23:29.494Z,42.83
2019-05-10T10:24:30.331Z,43.41
2019-05-10T10:25:39.872Z,42.36
2019-05-10T10:26:40.750Z,40.62
2019-05-10T10:27:45.126Z,40.83
2019-05-10T10:28:54.509Z,41.00
2019-05-10T10:29:57.341Z,40.65
2019-05-10T10:31:05.290Z,40.49
2019-05-10T10:32:08.025Z,40.97
2019-05-10T10:33:17.805Z,39.48
2019-05-10T10:34:19.279Z,38.53
2019-05-10T10:35:27.752Z,39.56
2019-05-10T10:36:29.486Z,40.50
2019-05-10T10:37:33.676Z,40.52
2019-05-10T10:38:45.486Z,41.03
2019-05-10T10:39:43.886Z,40.25
2019-05-10T10:40:48.232Z,39.02
2019-05-10T10:41:52.535Z,39.25
2019-05-10T10:42:57.754Z,40.03
2019-05-10T10:44:02.089Z,40.21
2019-05-10T10:45:07.659Z,38.70
2019-05-10T10:46:12.711Z,37.33
2019-05-10T10:47:17.975Z,37.80
2019-05-10T10:48:22.284Z,38.61
2019-05-10T10:49:28.059Z,38.35
2019-05-10T10:50:32.492Z,39.08
2019-05-10T10:51:37.916Z,38.81
2019-05-10T10:52:42.185Z,39.22
2019-05-10T10:53:47.063Z,39.01
2019-05-10T10:54:51.309Z,39.38
2019-05-10T10:56:02.470Z,38.81
2019-05-10T10:57:01.518Z,38.77
2019-05-10T10:58:07.435Z,39.29
2019-05-10T10:59:11.799Z,39.25
2019-05-10T11:00:23.225Z,39.75
2019-05-10T11:01:25.565Z,39.92
2019-05-10T11:02:33.567Z,39.95
2019-05-10T11:03:35.943Z,39.20
2019-05-10T11:04:46.393Z,38.77
2019-05-10T11:05:46.526Z,38.48
2019-05-10T11:06:50.877Z,38.24
2019-05-10T11:07:55.038Z,38.85
2019-05-10T11:09:01.609Z,39.45
2019-05-10T11:10:15.428Z,40.11
2019-05-10T11:11:13.075Z,39.81
2019-05-10T11:12:22.488Z,39.96
2019-05-10T11:13:40.651Z,40.08
2019-05-10T11:14:34.013Z,40.25
2019-05-10T11:15:36.479Z,39.95
2019-05-10T11:16:41.440Z,39.31
2019-05-10T11:17:45.886Z,38.59
2019-05-10T11:18:51.927Z,39.28
2019-05-10T11:19:56.131Z,39.71
2019-05-10T11:21:02.027Z,39.51
2019-05-10T11:22:09.472Z,39.10
2019-05-10T11:23:16.200Z,38.75
2019-05-10T11:24:22.383Z,38.77
2019-05-10T11:25:25.815Z,38.59
2019-05-10T11:26:32.948Z,39.32
2019-05-10T11:27:36.032Z,39.63
2019-05-10T11:28:44.163Z,39.54
2019-05-10T11:29:46.246Z,39.28
2019-05-10T11:30:51.717Z,38.71
2019-05-10T11:32:12.331Z,38.47
2019-05-10T11:33:01.941Z,39.55
2019-05-10T11:34:06.404Z,39.56
2019-05-10T11:35:11.787Z,39.23
2019-05-10T11:36:16.798Z,38.73
2019-05-10T11:37:31.008Z,37.89
2019-05-10T11:38:27.039Z,38.21
2019-05-10T11:39:32.949Z,38.32
2019-05-10T11:40:37.451Z,38.37
2019-05-10T11:41:41.899Z,38.20
2019-05-10T11:42:47.626Z,37.51
2019-05-10T11:43:52.267Z,37.64
2019-05-10T11:44:56.426Z,37.71
2019-05-10T11:46:00.784Z,36.87
2019-05-10T11:47:20.130Z,36.81
2019-05-10T11:48:11.046Z,35.95
2019-05-10T11:49:15.211Z,36.60
2019-05-10T11:50:28.809Z,35.12
2019-05-10T11:51:25.433Z,34.94
2019-05-10T11:52:34.716Z,34.22
2019-05-10T11:53:35.760Z,34.58
2019-05-10T11:54:41.698Z,33.34
2019-05-10T11:55:46.061Z,33.18
2019-05-10T11:56:52.221Z,33.63
2019-05-10T11:58:03.221Z,32.84
2019-05-10T11:59:02.850Z,32.41
2019-05-10T12:01:19.296Z,34.12
2019-05-10T12:02:37.013Z,35.31
2019-05-10T12:03:26.720Z,35.22
2019-05-10T12:04:38.981Z,33.64
2019-05-10T12:05:37.048Z,33.55
2019-05-10T12:06:50.015Z,34.27
2019-05-10T12:07:47.296Z,33.39
2019-05-10T12:10:08.330Z,33.72
2019-05-10T12:11:12.380Z,33.97
2019-05-10T12:12:12.253Z,32.65
2019-05-10T12:14:22.020Z,34.09
2019-05-10T12:15:26.205Z,33.15
2019-05-10T12:16:33.364Z,33.40
2019-05-10T12:17:36.526Z,33.86
2019-05-10T12:18:46.543Z,34.85
2019-05-10T12:19:50.585Z,33.94
2019-05-10T12:22:03.570Z,34.16
2019-05-10T12:23:13.261Z,34.13
2019-05-10T12:24:32.786Z,32.73
2019-05-10T12:25:37.925Z,33.94
2019-05-10T12:26:05.331Z,33.27
2019-05-10T12:26:15.763Z,33.29
2019-05-10T12:26:18.523Z,33.47
2019-05-10T12:26:27.898Z,34.69
2019-05-10T12:27:44.094Z,32.82
2019-05-10T12:28:36.743Z,32.34
2019-05-10T12:29:41.118Z,33.13
2019-05-10T12:30:45.329Z,33.36
2019-05-10T12:31:53.358Z,34.34
2019-05-10T12:32:58.111Z,33.86
2019-05-10T12:34:08.930Z,32.23
2019-05-10T12:35:07.501Z,32.79
2019-05-10T12:36:22.242Z,32.24
2019-05-10T12:37:20.140Z,32.77
2019-05-10T12:38:29.616Z,33.05
2019-05-10T12:39:30.948Z,33.28
2019-05-10T12:40:35.462Z,32.59
2019-05-10T12:41:45.060Z,33.41
2019-05-10T12:42:47.074Z,33.41
2019-05-10T12:43:51.901Z,33.83
2019-05-10T12:44:57.291Z,33.61
2019-05-10T12:46:01.507Z,32.95
2019-05-10T12:47:05.913Z,33.71
2019-05-10T12:48:10.120Z,32.68
2019-05-10T12:49:14.512Z,33.41
2019-05-10T12:50:19.023Z,32.61
2019-05-10T12:51:23.373Z,32.92
2019-05-10T12:52:28.684Z,33.07
2019-05-10T12:53:36.730Z,32.88
2019-05-10T12:54:41.458Z,33.37
2019-05-10T12:55:45.439Z,33.45
2019-05-10T12:56:49.604Z,33.18
2019-05-10T12:57:53.951Z,32.71
2019-05-10T12:58:59.627Z,32.86
2019-05-10T13:00:06.925Z,33.08
2019-05-10T13:01:11.539Z,32.83
2019-05-10T13:02:15.936Z,33.09
2019-05-10T13:03:25.274Z,33.15
2019-05-10T13:04:39.606Z,32.21
2019-05-10T13:05:34.166Z,33.02
2019-05-10T13:06:38.211Z,32.43
2019-05-10T13:07:42.390Z,32.65
2019-05-10T13:08:46.735Z,32.39
2019-05-10T13:10:01.474Z,32.18
2019-05-10T13:10:58.180Z,31.96
2019-05-10T13:12:03.921Z,32.70
2019-05-10T13:13:08.399Z,33.08
2019-05-10T13:14:12.607Z,33.40
2019-05-10T13:15:17.082Z,34.11
2019-05-10T13:16:21.315Z,34.15
2019-05-10T13:17:25.668Z,34.47
2019-05-10T13:19:35.887Z,33.27
2019-05-10T13:20:40.088Z,34.05
2019-05-10T13:21:44.543Z,33.25
2019-05-10T13:22:49.028Z,33.83
2019-05-10T13:23:55.202Z,34.04
2019-05-10T13:24:59.276Z,33.76
2019-05-10T13:26:03.952Z,33.47
2019-05-10T13:27:08.107Z,33.70
2019-05-10T13:28:12.460Z,34.13
2019-05-10T13:29:16.627Z,33.68
2019-05-10T13:30:27.154Z,33.75
2019-05-10T13:31:26.973Z,34.28
2019-05-10T13:32:31.303Z,33.61
2019-05-10T13:33:41.779Z,32.70
2019-05-10T13:34:41.633Z,31.73
2019-05-10T13:35:50.832Z,32.70
2019-05-10T13:36:51.948Z,33.26
2019-05-10T13:37:56.832Z,32.42
2019-05-10T13:39:02.304Z,33.01
2019-05-10T13:40:08.360Z,32.46
2019-05-10T13:41:17.481Z,31.15
2019-05-10T13:42:18.923Z,32.53
2019-05-10T13:43:26.659Z,33.30
2019-05-10T13:44:29.576Z,33.32
2019-05-10T13:45:37.866Z,32.39
2019-05-10T13:46:39.930Z,31.08
2019-05-10T13:47:44.545Z,31.80
2019-05-10T13:48:48.754Z,31.27
2019-05-10T13:49:53.135Z,32.11
2019-05-10T13:50:58.598Z,32.11
2019-05-10T13:52:03.279Z,32.00
2019-05-10T13:53:19.866Z,31.25
2019-05-10T13:54:13.558Z,31.86
2019-05-10T13:55:17.777Z,32.29
2019-05-10T13:56:22.196Z,32.62
2019-05-10T13:57:26.554Z,32.37
2019-05-10T13:58:30.919Z,32.41
2019-05-10T13:59:35.092Z,31.84
2019-05-10T14:00:39.519Z,32.26
2019-05-10T14:01:44.213Z,31.58